Time;durP1;ratioP1;P1;durP2;ratioP2;P2;SDS_P1;SDS_P2;PMS_P1;PMS_P2;Temp;Humidity;BMP_temperature;BMP_pressure;BME280_temperature;BME280_humidity;BME280_pressure;Samples;Min_cycle;Max_cycle;Signal;HPM_P1;HPM_P2
2022/09/07 00:00:14;;;;;;;10.63;7.00;;;19.10;99.90;;;;;;5002745;28;20125;-67
2022/09/07 00:02:39;;;;;;;10.88;7.18;;;19.10;99.90;;;;;;5002316;28;20398;-67
2022/09/07 00:05:05;;;;;;;9.40;6.85;;;19.00;99.90;;;;;;5003086;28;20049;-68
2022/09/07 00:07:31;;;;;;;9.18;7.18;;;19.00;99.90;;;;;;5012107;28;20108;-65
2022/09/07 00:09:57;;;;;;;9.00;7.72;;;19.10;99.90;;;;;;5001983;28;20085;-67
2022/09/07 00:12:23;;;;;;;12.45;7.65;;;19.00;99.90;;;;;;5002501;28;20386;-67
2022/09/07 00:14:48;;;;;;;9.32;7.10;;;19.00;99.90;;;;;;5000120;28;20077;-67
2022/09/07 00:17:14;;;;;;;9.85;7.57;;;18.90;99.90;;;;;;5002333;28;20045;-68
2022/09/07 00:19:40;;;;;;;8.93;7.82;;;18.90;99.90;;;;;;5001985;28;20049;-67
2022/09/07 00:22:05;;;;;;;11.07;7.55;;;18.80;99.90;;;;;;5001770;28;20125;-67
2022/09/07 00:24:31;;;;;;;11.63;7.22;;;18.70;99.90;;;;;;5002262;28;20143;-65
2022/09/07 00:26:57;;;;;;;8.77;7.88;;;18.60;99.90;;;;;;5002075;28;20034;-67
2022/09/07 00:29:22;;;;;;;8.88;7.97;;;18.50;99.90;;;;;;5002214;28;20757;-67
2022/09/07 00:31:48;;;;;;;11.32;7.80;;;18.50;99.90;;;;;;5001815;28;20764;-66
2022/09/07 00:34:14;;;;;;;12.27;8.02;;;18.40;99.90;;;;;;5002102;28;20436;-67
2022/09/07 00:36:39;;;;;;;13.70;8.98;;;18.40;99.90;;;;;;5001180;28;20049;-67
2022/09/07 00:39:05;;;;;;;12.40;8.00;;;18.50;99.90;;;;;;5002197;28;20037;-68
2022/09/07 00:41:31;;;;;;;9.70;8.25;;;18.60;99.90;;;;;;5002231;28;20046;-67
2022/09/07 00:44:18;;;;;;;10.82;8.13;;;18.60;99.90;;;;;;5001856;28;20145;-67
2022/09/07 00:46:45;;;;;;;13.27;8.23;;;18.70;99.90;;;;;;5001072;28;20048;-67
2022/09/07 00:49:16;;;;;;;11.48;8.85;;;18.70;99.90;;;;;;5002311;28;20121;-68
2022/09/07 00:51:54;;;;;;;11.55;8.27;;;18.70;99.90;;;;;;5001462;28;20117;-66
2022/09/07 00:54:45;;;;;;;9.30;8.35;;;18.70;99.90;;;;;;5002016;28;20169;-67
2022/09/07 00:57:11;;;;;;;11.65;8.40;;;18.70;99.90;;;;;;4994841;28;20054;-69
2022/09/07 00:59:43;;;;;;;11.68;8.63;;;18.40;99.90;;;;;;5003877;28;20748;-68
2022/09/07 01:02:11;;;;;;;11.95;8.10;;;18.40;99.90;;;;;;5005749;28;20120;-67
2022/09/07 01:04:37;;;;;;;10.15;8.85;;;18.40;99.90;;;;;;5004905;28;20046;-68
2022/09/07 01:07:04;;;;;;;10.30;8.25;;;18.70;99.90;;;;;;5015962;28;20069;-67
2022/09/07 01:09:31;;;;;;;11.48;8.90;;;18.40;99.90;;;;;;5005150;28;20417;-69
2022/09/07 01:11:59;;;;;;;12.32;8.52;;;18.40;99.90;;;;;;5004933;28;20115;-68
2022/09/07 01:14:29;;;;;;;9.88;8.55;;;18.40;99.90;;;;;;5038980;22;20061;-67
2022/09/07 01:17:28;;;;;;;12.82;8.45;;;18.50;99.90;;;;;;5043435;28;20048;-68
2022/09/07 01:20:21;;;;;;;10.10;8.45;;;18.60;99.90;;;;;;5045000;28;20398;-68
2022/09/07 01:23:11;;;;;;;9.98;8.10;;;18.30;99.90;;;;;;5042514;28;20578;-67
2022/09/07 01:26:05;;;;;;;9.43;8.43;;;18.40;99.90;;;;;;5044705;28;20045;-66
2022/09/07 01:28:33;;;;;;;10.07;9.05;;;18.50;99.90;;;;;;5043657;28;20134;-65
2022/09/07 01:31:31;;;;;;;12.30;8.80;;;18.50;99.90;;;;;;5044798;28;20049;-67
2022/09/07 01:34:06;;;;;;;10.45;9.40;;;18.10;99.90;;;;;;5044506;28;20049;-67
2022/09/07 01:36:56;;;;;;;13.18;9.15;;;17.80;99.90;;;;;;5044046;28;20049;-67
2022/09/07 01:39:33;;;;;;;13.02;10.60;;;17.80;99.90;;;;;;5044728;28;20041;-70
2022/09/07 01:42:11;;;;;;;13.40;10.80;;;17.50;99.90;;;;;;5044626;28;20057;-71
2022/09/07 01:45:00;;;;;;;13.63;11.40;;;17.30;99.90;;;;;;5044126;28;20049;-72
2022/09/07 01:47:38;;;;;;;19.77;13.52;;;17.10;99.90;;;;;;5044372;28;20547;-69
2022/09/07 01:50:17;;;;;;;25.73;14.77;;;16.90;99.90;;;;;;5044698;28;20510;-67
2022/09/07 01:52:47;;;;;;;20.73;15.15;;;16.50;99.90;;;;;;5043547;28;20126;-70
2022/09/07 01:55:21;;;;;;;20.30;16.02;;;16.20;99.90;;;;;;5044295;28;20049;-70
2022/09/07 01:58:10;;;;;;;20.60;16.90;;;16.10;99.90;;;;;;5043522;28;20497;-71
2022/09/07 02:00:40;;;;;;;19.17;17.02;;;16.10;99.90;;;;;;5044141;28;20338;-70
2022/09/07 02:03:13;;;;;;;19.73;16.13;;;16.10;99.90;;;;;;5044095;28;20678;-70
2022/09/07 02:05:47;;;;;;;20.50;18.05;;;16.10;99.90;;;;;;5043186;28;20130;-69
2022/09/07 02:08:19;;;;;;;20.58;18.05;;;16.20;99.90;;;;;;5042054;28;20094;-70
2022/09/07 02:10:50;;;;;;;23.23;21.02;;;16.20;99.90;;;;;;5043969;28;20146;-69
2022/09/07 02:13:28;;;;;;;24.83;22.27;;;16.30;99.90;;;;;;5043912;28;20167;-70
2022/09/07 02:16:09;;;;;;;22.98;20.67;;;16.20;99.90;;;;;;5043445;28;20041;-71
2022/09/07 02:18:41;;;;;;;23.20;20.17;;;16.20;99.90;;;;;;5044341;28;20883;-70
2022/09/07 02:21:09;;;;;;;22.85;20.25;;;16.20;99.90;;;;;;5043115;28;20056;-70
2022/09/07 02:23:43;;;;;;;20.52;18.45;;;16.20;99.90;;;;;;5044153;28;20048;-68
2022/09/07 02:26:18;;;;;;;19.75;17.80;;;16.20;99.90;;;;;;5043411;28;20048;-70
2022/09/07 02:28:44;;;;;;;21.10;18.80;;;16.20;99.90;;;;;;5026234;28;20120;-70
2022/09/07 02:31:10;;;;;;;24.73;19.90;;;16.30;99.90;;;;;;5023613;28;20049;-70
2022/09/07 02:33:36;;;;;;;20.45;18.38;;;16.30;99.90;;;;;;5023342;28;20140;-66
2022/09/07 02:36:03;;;;;;;21.77;19.17;;;16.30;99.90;;;;;;5021962;28;20179;-70
2022/09/07 02:38:30;;;;;;;20.52;18.40;;;16.40;99.90;;;;;;5023560;28;20041;-70
2022/09/07 02:40:59;;;;;;;21.85;18.75;;;16.50;99.90;;;;;;5023580;28;20290;-69
2022/09/07 02:43:26;;;;;;;20.92;18.83;;;16.60;99.90;;;;;;5023341;28;20258;-70
2022/09/07 02:46:25;;;;;;;21.27;19.27;;;16.70;99.90;;;;;;5023456;28;20459;-70
2022/09/07 02:49:06;;;;;;;23.45;19.30;;;16.90;99.90;;;;;;5023536;28;20053;-69
2022/09/07 02:51:51;;;;;;;17.95;16.05;;;16.90;99.90;;;;;;5022569;28;20129;-70
2022/09/07 02:54:45;;;;;;;19.30;17.50;;;16.90;99.90;;;;;;5023347;28;20132;-70
2022/09/07 02:57:29;;;;;;;20.25;18.25;;;16.80;99.90;;;;;;5023424;28;20776;-70
2022/09/07 03:00:07;;;;;;;18.42;16.50;;;16.90;99.90;;;;;;5022787;28;20037;-70
2022/09/07 03:02:36;;;;;;;18.27;16.48;;;17.00;99.90;;;;;;5023475;28;20096;-70
2022/09/07 03:05:16;;;;;;;19.67;17.65;;;17.00;99.90;;;;;;5024947;28;20458;-70
2022/09/07 03:08:00;;;;;;;20.27;18.23;;;17.10;99.90;;;;;;5041115;28;20041;-69
2022/09/07 03:10:27;;;;;;;19.83;17.52;;;17.00;99.90;;;;;;5041413;28;20080;-71
2022/09/07 03:12:52;;;;;;;19.55;17.42;;;17.00;99.90;;;;;;5042338;28;20033;-71
2022/09/07 03:15:21;;;;;;;22.90;19.00;;;16.90;99.90;;;;;;5042444;28;20056;-70
2022/09/07 03:17:47;;;;;;;18.20;16.30;;;16.90;99.90;;;;;;5042394;28;20201;-71
2022/09/07 03:20:15;;;;;;;20.02;18.02;;;16.80;99.90;;;;;;5041879;28;20183;-71
2022/09/07 03:22:41;;;;;;;19.05;17.05;;;16.70;99.90;;;;;;5041553;28;20048;-70
2022/09/07 03:25:07;;;;;;;19.90;17.95;;;16.80;99.90;;;;;;5042544;28;20037;-70
2022/09/07 03:27:32;;;;;;;21.73;18.92;;;16.80;99.90;;;;;;5042828;28;20091;-70
2022/09/07 03:29:59;;;;;;;19.45;17.60;;;16.80;99.90;;;;;;5040413;28;20044;-70
2022/09/07 03:32:30;;;;;;;20.38;18.38;;;16.80;99.90;;;;;;5042347;28;20045;-70
2022/09/07 03:34:55;;;;;;;22.17;18.70;;;16.90;99.90;;;;;;5042016;28;20118;-71
2022/09/07 03:37:21;;;;;;;20.40;18.35;;;16.70;99.90;;;;;;5041475;28;20052;-70
2022/09/07 03:39:47;;;;;;;19.30;17.23;;;16.70;99.90;;;;;;5042186;28;20036;-72
2022/09/07 03:42:12;;;;;;;22.05;19.75;;;16.70;99.90;;;;;;5042685;28;20385;-70
2022/09/07 03:44:38;;;;;;;21.23;19.05;;;16.80;99.90;;;;;;5043134;28;20052;-71
2022/09/07 03:47:04;;;;;;;20.60;18.50;;;16.70;99.90;;;;;;5043838;28;20033;-71
2022/09/07 03:49:29;;;;;;;18.63;16.80;;;16.60;99.90;;;;;;5041530;28;20056;-70
2022/09/07 03:51:55;;;;;;;21.08;19.05;;;16.70;99.90;;;;;;5042211;28;20045;-70
2022/09/07 03:54:21;;;;;;;21.75;19.52;;;16.80;99.90;;;;;;5042321;28;20513;-71
2022/09/07 03:56:47;;;;;;;23.88;21.42;;;16.80;99.90;;;;;;5042788;28;20060;-71
2022/09/07 03:59:13;;;;;;;21.40;19.20;;;16.70;99.90;;;;;;5042988;28;20041;-71
2022/09/07 04:01:38;;;;;;;21.77;19.45;;;16.60;99.90;;;;;;5042102;28;20035;-71
2022/09/07 04:04:04;;;;;;;20.50;18.42;;;16.70;99.90;;;;;;5043297;28;20045;-70
2022/09/07 04:06:31;;;;;;;23.33;20.70;;;16.80;99.90;;;;;;5041222;28;20513;-70
2022/09/07 04:09:01;;;;;;;22.92;20.60;;;16.80;99.90;;;;;;5041353;28;20115;-71
2022/09/07 04:11:27;;;;;;;26.45;20.00;;;16.60;99.90;;;;;;5042376;28;20649;-70
2022/09/07 04:13:53;;;;;;;23.98;21.55;;;16.60;99.90;;;;;;5042497;28;20056;-70
2022/09/07 04:16:21;;;;;;;23.02;20.65;;;16.60;99.90;;;;;;5042861;28;20140;-70
2022/09/07 04:18:53;;;;;;;22.13;19.88;;;16.60;99.90;;;;;;5042510;28;20045;-70
2022/09/07 04:21:20;;;;;;;19.83;17.83;;;16.60;99.90;;;;;;5041938;28;20107;-71
2022/09/07 04:23:47;;;;;;;24.42;21.02;;;16.60;99.90;;;;;;5042226;28;20049;-71
2022/09/07 04:26:13;;;;;;;21.02;19.00;;;16.60;99.90;;;;;;5043192;28;20056;-70
2022/09/07 04:28:39;;;;;;;21.45;19.30;;;16.50;99.90;;;;;;5042404;28;20041;-70
2022/09/07 04:31:05;;;;;;;21.08;19.00;;;16.50;99.90;;;;;;5043686;28;20045;-69
2022/09/07 04:33:31;;;;;;;23.45;20.95;;;16.40;99.90;;;;;;5045839;28;20198;-71
2022/09/07 04:36:01;;;;;;;23.13;20.73;;;16.40;99.90;;;;;;5044371;28;20118;-70
2022/09/07 04:38:27;;;;;;;22.20;19.88;;;16.40;99.90;;;;;;5045097;28;20092;-71
2022/09/07 04:41:00;;;;;;;23.27;20.98;;;16.50;99.90;;;;;;5044643;28;20053;-71
2022/09/07 04:43:27;;;;;;;22.98;20.73;;;16.50;99.90;;;;;;5046093;28;20649;-69
2022/09/07 04:45:53;;;;;;;24.90;22.42;;;16.50;99.90;;;;;;5046329;28;20090;-71
2022/09/07 04:48:18;;;;;;;23.95;21.65;;;16.50;99.90;;;;;;5045641;28;20037;-70
2022/09/07 04:50:44;;;;;;;22.83;20.35;;;16.50;99.90;;;;;;5045675;28;20175;-70
2022/09/07 04:53:09;;;;;;;22.33;19.80;;;16.50;99.90;;;;;;5046427;28;20037;-66
2022/09/07 04:55:35;;;;;;;22.73;20.38;;;16.50;99.90;;;;;;5046168;28;20553;-71
2022/09/07 04:58:02;;;;;;;25.08;21.83;;;16.50;99.90;;;;;;5046070;28;20037;-71
2022/09/07 05:00:28;;;;;;;25.20;22.83;;;16.40;99.90;;;;;;5045835;28;20072;-69
2022/09/07 05:02:53;;;;;;;24.35;22.05;;;16.30;99.90;;;;;;5045873;28;20499;-69
2022/09/07 05:05:19;;;;;;;24.70;22.17;;;16.40;99.90;;;;;;5045140;28;20405;-72
2022/09/07 05:07:44;;;;;;;24.13;21.63;;;16.40;99.90;;;;;;5045229;28;20041;-70
2022/09/07 05:10:10;;;;;;;24.67;22.17;;;16.40;99.90;;;;;;5046189;28;20115;-70
2022/09/07 05:12:36;;;;;;;24.50;22.20;;;16.40;99.90;;;;;;5045495;28;20495;-70
2022/09/07 05:15:03;;;;;;;23.85;21.55;;;16.40;99.90;;;;;;5044078;28;20053;-71
2022/09/07 05:17:29;;;;;;;24.95;22.33;;;16.40;99.90;;;;;;5045506;28;20112;-69
2022/09/07 05:19:56;;;;;;;24.05;21.65;;;16.30;99.90;;;;;;5045582;28;20053;-70
2022/09/07 05:22:23;;;;;;;23.98;21.55;;;16.30;99.90;;;;;;5043659;28;20045;-71
2022/09/07 05:24:49;;;;;;;23.40;21.05;;;16.30;99.90;;;;;;5045667;28;20084;-71
2022/09/07 05:27:15;;;;;;;24.15;21.88;;;16.40;99.90;;;;;;5045446;28;20087;-69
2022/09/07 05:29:41;;;;;;;23.27;20.77;;;16.40;99.90;;;;;;5045195;28;20045;-70
2022/09/07 05:32:07;;;;;;;25.38;22.92;;;16.40;99.90;;;;;;5045903;28;20052;-69
2022/09/07 05:34:32;;;;;;;23.65;21.35;;;16.40;99.90;;;;;;5045138;28;20561;-71
2022/09/07 05:36:58;;;;;;;23.80;20.42;;;16.40;99.90;;;;;;5044094;28;20045;-71
2022/09/07 05:39:24;;;;;;;24.75;22.25;;;16.40;99.90;;;;;;5045056;28;20045;-68
2022/09/07 05:41:50;;;;;;;24.90;22.60;;;16.50;99.90;;;;;;5045223;28;20135;-69
2022/09/07 05:44:16;;;;;;;24.42;21.88;;;16.50;99.90;;;;;;5045550;28;20084;-70
2022/09/07 05:46:41;;;;;;;25.40;22.90;;;16.50;99.90;;;;;;5044946;28;20056;-70
2022/09/07 05:49:07;;;;;;;24.98;22.52;;;16.60;99.90;;;;;;5045226;28;20431;-69
2022/09/07 05:51:33;;;;;;;26.75;24.02;;;16.60;99.90;;;;;;5044062;28;20110;-69
2022/09/07 05:53:59;;;;;;;24.88;22.40;;;16.60;99.90;;;;;;5044652;28;20079;-71
2022/09/07 05:56:25;;;;;;;24.67;22.17;;;16.60;99.90;;;;;;5044494;28;20041;-69
2022/09/07 05:58:50;;;;;;;25.63;23.13;;;16.40;99.90;;;;;;5044966;28;20048;-69
2022/09/07 06:01:17;;;;;;;26.20;23.70;;;16.50;99.90;;;;;;5044848;28;20052;-70
2022/09/07 06:03:43;;;;;;;25.83;23.33;;;16.40;99.90;;;;;;5044957;28;20080;-66
2022/09/07 06:06:17;;;;;;;28.42;25.60;;;16.30;99.90;;;;;;5043850;28;20045;-70
2022/09/07 06:08:51;;;;;;;26.40;23.70;;;16.40;99.90;;;;;;5043886;28;20037;-70
2022/09/07 06:11:22;;;;;;;26.45;23.67;;;16.40;99.90;;;;;;5044643;28;20507;-70
2022/09/07 06:13:48;;;;;;;27.15;24.60;;;16.40;99.90;;;;;;5044647;28;20124;-70
2022/09/07 06:16:15;;;;;;;27.25;24.58;;;16.40;99.90;;;;;;5042966;28;20045;-70
2022/09/07 06:18:43;;;;;;;27.17;24.38;;;16.40;99.90;;;;;;5044744;28;20138;-69
2022/09/07 06:21:20;;;;;;;27.63;24.88;;;16.40;99.90;;;;;;5044254;28;20053;-70
2022/09/07 06:23:47;;;;;;;27.05;24.23;;;16.40;99.90;;;;;;5043680;28;20052;-68
2022/09/07 06:26:15;;;;;;;26.30;23.70;;;16.40;99.90;;;;;;5044647;28;20048;-69
2022/09/07 06:28:46;;;;;;;26.80;24.08;;;16.40;99.90;;;;;;5044650;28;20399;-69
2022/09/07 06:31:17;;;;;;;26.55;23.98;;;16.40;99.90;;;;;;5044078;28;20661;-70
2022/09/07 06:33:43;;;;;;;27.13;24.42;;;16.40;99.90;;;;;;5044462;28;20044;-69
2022/09/07 06:36:20;;;;;;;27.13;24.52;;;16.40;99.90;;;;;;5043755;28;20094;-69
2022/09/07 06:38:48;;;;;;;27.33;24.70;;;16.40;99.90;;;;;;5044163;28;20528;-69
2022/09/07 06:41:19;;;;;;;26.38;23.55;;;16.50;99.90;;;;;;5044609;28;20041;-71
2022/09/07 06:43:45;;;;;;;25.50;23.02;;;16.50;99.90;;;;;;5043394;28;20045;-70
2022/09/07 06:46:11;;;;;;;27.67;24.77;;;16.60;99.90;;;;;;5044408;28;20076;-70
2022/09/07 06:48:37;;;;;;;26.42;23.83;;;16.70;99.90;;;;;;5043783;28;20390;-69
2022/09/07 06:51:14;;;;;;;26.70;24.10;;;16.80;99.90;;;;;;5043117;28;20048;-70
2022/09/07 06:53:39;;;;;;;25.60;23.13;;;16.80;99.90;;;;;;5043354;28;20033;-70
2022/09/07 06:56:09;;;;;;;27.63;24.95;;;16.80;99.90;;;;;;5043961;28;20060;-70
2022/09/07 06:58:36;;;;;;;26.38;23.77;;;16.90;99.90;;;;;;5043324;28;20057;-70
2022/09/07 07:01:22;;;;;;;26.38;23.80;;;16.90;99.90;;;;;;5043691;28;20045;-68
2022/09/07 07:03:49;;;;;;;26.95;24.38;;;17.00;99.90;;;;;;5043212;28;20051;-68
2022/09/07 07:06:16;;;;;;;28.25;25.35;;;17.00;99.90;;;;;;5042605;28;20055;-66
2022/09/07 07:08:41;;;;;;;23.55;21.25;;;17.40;99.90;;;;;;5043796;28;20111;-71
2022/09/07 07:11:12;;;;;;;22.90;20.85;;;17.70;99.90;;;;;;5043888;28;20175;-69
2022/09/07 07:13:40;;;;;;;23.80;21.40;;;18.10;99.90;;;;;;5042859;28;20041;-70
2022/09/07 07:16:11;;;;;;;22.67;20.60;;;17.90;99.90;;;;;;5043340;28;20044;-70
2022/09/07 07:18:38;;;;;;;23.55;21.30;;;18.20;99.90;;;;;;5043232;28;20086;-70
2022/09/07 07:21:14;;;;;;;24.27;21.90;;;18.10;99.90;;;;;;5041444;28;20050;-70
2022/09/07 07:23:40;;;;;;;23.05;20.75;;;18.00;99.90;;;;;;5043224;28;20184;-69
2022/09/07 07:26:27;;;;;;;23.55;21.17;;;17.70;99.90;;;;;;5041663;28;20403;-70
2022/09/07 07:28:55;;;;;;;23.70;21.38;;;17.70;99.90;;;;;;5043493;28;20055;-70
2022/09/07 07:31:24;;;;;;;23.23;20.92;;;17.60;99.90;;;;;;5043295;28;20094;-70
2022/09/07 07:33:51;;;;;;;23.63;21.45;;;17.40;99.90;;;;;;5043258;28;20121;-70
2022/09/07 07:36:22;;;;;;;23.75;21.55;;;17.30;99.90;;;;;;5042422;28;20132;-68
2022/09/07 07:38:50;;;;;;;25.45;22.95;;;17.30;99.90;;;;;;5043057;28;20057;-69
2022/09/07 07:41:18;;;;;;;24.63;22.33;;;17.30;99.90;;;;;;5043243;28;20076;-69
2022/09/07 07:43:43;;;;;;;25.30;22.70;;;17.30;99.90;;;;;;5043205;28;20178;-70
2022/09/07 07:46:14;;;;;;;25.60;23.13;;;17.30;99.90;;;;;;5043290;28;20067;-69
2022/09/07 07:48:41;;;;;;;25.67;23.30;;;17.40;99.90;;;;;;5042643;28;20041;-69
2022/09/07 07:51:11;;;;;;;25.60;23.20;;;17.40;99.90;;;;;;5042592;28;20407;-69
2022/09/07 07:53:39;;;;;;;25.80;23.40;;;17.40;99.90;;;;;;5042584;28;20110;-68
2022/09/07 07:56:06;;;;;;;26.70;24.10;;;17.40;99.90;;;;;;5042835;28;20107;-69
2022/09/07 07:58:33;;;;;;;24.75;22.42;;;17.50;99.90;;;;;;5042971;28;20108;-69
2022/09/07 08:01:05;;;;;;;25.67;23.17;;;17.50;99.90;;;;;;5043258;28;20049;-68
2022/09/07 08:03:34;;;;;;;27.05;24.45;;;17.50;99.90;;;;;;5042789;28;20041;-68
2022/09/07 08:06:07;;;;;;;26.85;24.35;;;17.50;99.90;;;;;;5042318;28;20056;-68
2022/09/07 08:08:34;;;;;;;26.73;23.98;;;17.60;99.90;;;;;;5046187;28;20041;-69
2022/09/07 08:11:07;;;;;;;25.85;23.27;;;17.50;99.90;;;;;;5045739;28;20134;-68
2022/09/07 08:13:33;;;;;;;24.52;22.23;;;17.60;99.90;;;;;;5046471;28;20067;-72
2022/09/07 08:15:59;;;;;;;25.17;22.67;;;16.70;99.90;;;;;;5046322;28;20045;-72
2022/09/07 08:18:25;;;;;;;25.35;22.83;;;17.70;99.90;;;;;;5045365;28;20037;-70
2022/09/07 08:20:51;;;;;;;25.90;23.48;;;17.60;99.90;;;;;;5046017;28;20774;-71
2022/09/07 08:23:19;;;;;;;25.02;22.65;;;17.60;99.90;;;;;;5047062;28;20045;-71
2022/09/07 08:25:53;;;;;;;25.05;22.65;;;17.60;99.90;;;;;;5046769;28;20045;-70
2022/09/07 08:28:19;;;;;;;23.83;21.60;;;17.70;99.90;;;;;;5047336;28;20053;-71
2022/09/07 08:30:45;;;;;;;25.50;21.92;;;17.70;99.90;;;;;;5046552;28;20044;-68
2022/09/07 08:33:11;;;;;;;23.77;21.48;;;17.70;99.90;;;;;;5046641;28;20049;-69
2022/09/07 08:35:36;;;;;;;23.58;21.38;;;17.70;99.90;;;;;;5045614;28;20140;-70
2022/09/07 08:38:02;;;;;;;20.50;17.38;;;17.80;99.90;;;;;;5045298;28;20051;-70
2022/09/07 08:40:29;;;;;;;23.55;21.05;;;17.80;99.90;;;;;;5045789;28;20056;-67
2022/09/07 08:43:14;;;;;;;21.23;19.15;;;17.90;99.90;;;;;;5046757;28;20045;-68
2022/09/07 08:45:47;;;;;;;22.67;20.40;;;18.00;99.90;;;;;;5045579;28;20045;-67
2022/09/07 08:48:19;;;;;;;22.37;20.17;;;17.90;99.90;;;;;;5046389;28;20037;-68
2022/09/07 08:50:58;;;;;;;21.10;19.15;;;18.10;99.90;;;;;;5045363;28;20662;-68
2022/09/07 08:53:25;;;;;;;22.92;19.92;;;18.00;99.90;;;;;;5046236;28;20422;-70
2022/09/07 08:55:55;;;;;;;22.67;20.40;;;18.00;99.90;;;;;;5046387;28;20047;-68
2022/09/07 08:58:34;;;;;;;21.27;19.20;;;18.10;99.90;;;;;;5044773;28;20048;-62
2022/09/07 09:00:59;;;;;;;20.10;18.20;;;18.10;99.90;;;;;;5045956;28;20124;-73
2022/09/07 09:03:28;;;;;;;20.73;18.75;;;18.20;99.90;;;;;;5045866;28;20127;-72
2022/09/07 09:06:04;;;;;;;21.80;18.88;;;18.20;99.90;;;;;;5044223;28;20056;-72
2022/09/07 09:09:01;;;;;;;19.33;17.27;;;18.30;99.90;;;;;;5041862;28;20198;-71
2022/09/07 09:11:45;;;;;;;19.58;17.58;;;18.30;99.90;;;;;;5010976;28;20060;-72
2022/09/07 09:14:43;;;;;;;19.73;17.83;;;18.20;99.90;;;;;;5045249;28;20057;-72
2022/09/07 09:17:23;;;;;;;21.10;18.55;;;18.20;99.90;;;;;;5045571;28;20414;-72
2022/09/07 09:20:10;;;;;;;20.10;18.13;;;18.30;99.90;;;;;;5045671;28;20434;-72
2022/09/07 09:22:37;;;;;;;20.08;18.10;;;18.20;99.90;;;;;;5045286;28;20102;-71
2022/09/07 09:25:25;;;;;;;20.52;18.27;;;18.20;99.90;;;;;;5043830;28;20056;-72
2022/09/07 09:27:51;;;;;;;20.85;18.67;;;18.20;99.90;;;;;;5045754;28;20052;-72
2022/09/07 09:30:20;;;;;;;20.13;18.13;;;18.20;99.90;;;;;;5043644;28;20045;-72
2022/09/07 09:32:48;;;;;;;22.05;19.75;;;18.40;99.90;;;;;;5044761;28;20110;-72
2022/09/07 09:35:35;;;;;;;21.65;19.45;;;18.40;99.90;;;;;;5044706;28;20053;-72
2022/09/07 09:38:04;;;;;;;22.40;20.10;;;18.50;99.90;;;;;;5045592;28;20041;-72
2022/09/07 09:40:32;;;;;;;23.88;21.38;;;18.60;99.90;;;;;;5043744;28;20045;-72
2022/09/07 09:43:16;;;;;;;24.42;21.80;;;18.60;99.90;;;;;;5044831;28;20119;-73
2022/09/07 09:45:45;;;;;;;23.15;20.83;;;18.70;99.90;;;;;;5044915;28;20511;-72
2022/09/07 09:48:21;;;;;;;23.52;21.23;;;18.80;99.90;;;;;;5044571;28;20040;-73
2022/09/07 09:50:52;;;;;;;22.15;19.85;;;18.90;99.90;;;;;;5044093;28;20045;-74
2022/09/07 09:53:25;;;;;;;23.25;20.17;;;18.80;99.90;;;;;;5044840;28;20140;-72
2022/09/07 09:55:52;;;;;;;24.13;21.67;;;18.80;99.90;;;;;;5044322;28;20045;-72
2022/09/07 09:58:32;;;;;;;23.10;20.75;;;18.90;99.90;;;;;;5045204;28;20049;-72
2022/09/07 10:01:02;;;;;;;23.45;21.05;;;19.10;99.90;;;;;;5044585;28;20444;-72
2022/09/07 10:03:33;;;;;;;22.35;20.13;;;19.20;99.90;;;;;;5044830;28;20045;-72
2022/09/07 10:06:02;;;;;;;23.02;20.73;;;19.30;99.90;;;;;;5043603;28;20048;-73
2022/09/07 10:08:28;;;;;;;22.25;19.92;;;19.40;99.90;;;;;;5044216;28;20044;-72
2022/09/07 10:11:03;;;;;;;23.58;21.17;;;19.50;99.90;;;;;;5044953;28;20053;-72
2022/09/07 10:13:35;;;;;;;22.55;20.33;;;19.40;99.90;;;;;;5043107;28;20444;-72
2022/09/07 10:16:08;;;;;;;23.08;20.67;;;19.40;99.90;;;;;;5044868;28;20052;-72
2022/09/07 10:18:37;;;;;;;25.10;21.75;;;19.50;99.90;;;;;;5026663;28;20137;-72
2022/09/07 10:21:22;;;;;;;22.48;20.38;;;19.40;99.90;;;;;;5043668;28;20048;-73
2022/09/07 10:23:53;;;;;;;23.70;21.08;;;19.50;99.90;;;;;;5044840;28;20072;-73
2022/09/07 10:26:26;;;;;;;23.88;21.58;;;19.40;99.90;;;;;;5044266;28;20120;-74
2022/09/07 10:29:13;;;;;;;22.65;20.33;;;19.50;99.90;;;;;;5043066;28;20045;-72
2022/09/07 10:31:45;;;;;;;22.52;20.35;;;19.60;99.90;;;;;;5043862;28;20115;-68
2022/09/07 10:34:32;;;;;;;21.85;19.65;;;19.70;99.90;;;;;;5044416;28;20182;-68
2022/09/07 10:37:07;;;;;;;22.70;20.38;;;19.70;99.90;;;;;;5044009;28;20048;-68
2022/09/07 10:39:56;;;;;;;21.73;19.65;;;19.80;99.90;;;;;;5044010;28;20041;-67
2022/09/07 10:42:28;;;;;;;21.55;18.70;;;19.90;99.90;;;;;;5043861;28;20052;-67
2022/09/07 10:45:38;;;;;;;21.45;18.02;;;20.10;99.90;;;;;;5043891;28;20464;-67
2022/09/07 10:48:13;;;;;;;19.95;17.73;;;20.40;99.90;;;;;;5050973;28;20052;-68
2022/09/07 10:50:51;;;;;;;19.77;17.67;;;20.50;99.90;;;;;;5062661;28;20048;-62
2022/09/07 10:53:46;;;;;;;20.63;18.48;;;20.40;99.90;;;;;;5063947;28;20399;-68
2022/09/07 10:56:18;;;;;;;19.38;17.48;;;20.30;99.90;;;;;;5055227;28;20052;-67
2022/09/07 10:58:56;;;;;;;19.00;17.13;;;20.20;99.90;;;;;;5063437;28;20059;-67
2022/09/07 11:02:04;;;;;;;19.35;17.45;;;20.10;99.90;;;;;;5064176;28;20644;-67
2022/09/07 11:04:45;;;;;;;20.10;18.10;;;20.10;99.90;;;;;;5062068;28;20084;-68
2022/09/07 11:07:20;;;;;;;21.02;18.42;;;20.10;99.90;;;;;;5042136;28;20112;-67
2022/09/07 11:09:52;;;;;;;20.38;18.27;;;20.20;99.90;;;;;;5043140;28;20114;-67
2022/09/07 11:12:29;;;;;;;19.63;17.63;;;20.30;99.90;;;;;;5043686;28;20047;-68
2022/09/07 11:15:17;;;;;;;18.38;16.48;;;20.30;99.90;;;;;;5043389;28;20059;-68
2022/09/07 11:18:06;;;;;;;18.23;15.95;;;20.30;99.90;;;;;;5041814;28;20113;-68
2022/09/07 11:20:44;;;;;;;17.65;15.75;;;20.30;99.90;;;;;;5042184;28;20049;-68
2022/09/07 11:23:44;;;;;;;19.58;15.57;;;20.50;99.90;;;;;;5043441;28;20116;-69
2022/09/07 11:26:28;;;;;;;15.57;14.00;;;20.40;99.90;;;;;;5018705;28;20069;-69
2022/09/07 11:29:16;;;;;;;15.13;13.63;;;20.70;99.90;;;;;;5042799;28;20144;-69
2022/09/07 11:31:49;;;;;;;16.13;12.95;;;21.10;99.90;;;;;;5041663;28;20053;-68
2022/09/07 11:34:20;;;;;;;13.98;11.88;;;21.50;99.90;;;;;;5041267;28;20049;-69
2022/09/07 11:36:56;;;;;;;13.98;12.48;;;21.70;99.90;;;;;;5042789;28;20106;-69
2022/09/07 11:39:45;;;;;;;12.57;11.38;;;21.30;99.90;;;;;;5043453;28;20088;-69
2022/09/07 11:42:21;;;;;;;13.98;12.63;;;21.20;99.90;;;;;;5042788;28;20048;-69
2022/09/07 11:44:55;;;;;;;12.00;10.80;;;21.10;99.90;;;;;;5042075;28;20388;-68
2022/09/07 11:47:40;;;;;;;12.18;10.98;;;21.20;99.90;;;;;;5043298;28;20102;-71
2022/09/07 11:50:15;;;;;;;11.00;9.90;;;21.20;99.90;;;;;;5040259;28;20045;-70
2022/09/07 11:52:48;;;;;;;10.82;9.18;;;21.60;99.90;;;;;;5036540;28;20047;-70
2022/09/07 11:55:26;;;;;;;11.10;9.85;;;21.50;99.90;;;;;;5039798;28;20400;-69
2022/09/07 11:58:13;;;;;;;10.40;9.40;;;21.60;99.90;;;;;;5042188;28;20117;-70
2022/09/07 12:00:49;;;;;;;10.27;9.27;;;21.60;99.90;;;;;;5020911;28;20045;-69
2022/09/07 12:03:36;;;;;;;11.35;10.23;;;21.60;99.90;;;;;;5031557;28;20120;-69
2022/09/07 12:06:17;;;;;;;10.90;9.02;;;21.50;99.90;;;;;;5040608;28;20053;-70
2022/09/07 12:08:56;;;;;;;11.20;9.60;;;21.70;99.90;;;;;;5042196;28;20203;-66
2022/09/07 12:11:35;;;;;;;10.75;9.00;;;21.60;99.90;;;;;;5042258;28;20056;-66
2022/09/07 12:14:34;;;;;;;9.85;8.02;;;21.80;99.90;;;;;;5041891;28;20681;-66
2022/09/07 12:17:18;;;;;;;10.48;8.18;;;21.80;99.90;;;;;;5042322;28;20150;-70
2022/09/07 12:19:44;;;;;;;9.63;8.60;;;22.00;99.90;;;;;;5040972;28;20053;-71
2022/09/07 12:22:20;;;;;;;10.82;9.20;;;22.00;99.90;;;;;;5040082;28;20086;-71
2022/09/07 12:24:52;;;;;;;9.90;8.88;;;22.00;99.90;;;;;;5040668;28;20521;-69
2022/09/07 12:27:21;;;;;;;10.40;8.98;;;22.00;99.90;;;;;;5039228;28;20049;-71
2022/09/07 12:29:48;;;;;;;9.80;8.48;;;21.80;99.90;;;;;;5041412;28;20037;-71
2022/09/07 12:32:45;;;;;;;8.35;7.30;;;21.90;99.90;;;;;;5041295;28;20608;-70
2022/09/07 12:35:29;;;;;;;8.07;7.28;;;21.90;99.90;;;;;;5040939;28;20041;-69
2022/09/07 12:38:07;;;;;;;7.18;6.47;;;22.30;99.90;;;;;;5041697;28;20091;-69
2022/09/07 12:40:36;;;;;;;6.78;6.05;;;22.50;99.90;;;;;;5039880;28;20041;-71
2022/09/07 12:43:13;;;;;;;7.47;5.72;;;22.80;99.90;;;;;;5041536;28;20048;-70
2022/09/07 12:45:39;;;;;;;7.43;5.68;;;23.30;99.90;;;;;;5040441;28;20045;-70
2022/09/07 12:48:14;;;;;;;6.80;5.50;;;23.40;99.90;;;;;;5041703;28;20052;-70
2022/09/07 12:50:57;;;;;;;8.98;5.30;;;23.00;99.90;;;;;;5038573;28;20056;-72
2022/09/07 12:53:52;;;;;;;7.05;5.25;;;23.10;99.90;;;;;;5043136;28;20049;-68
2022/09/07 12:56:42;;;;;;;7.53;5.32;;;23.20;99.90;;;;;;5045826;28;20044;-69